Impacts METAR Board INFO
IDs:

KMIA - Miami Intl, FL, US

Updated at: 0040 UTC 14 Dec 2017
Potential Impact None Slight Moderate High
Time13/12Z 13/13Z 13/14Z 13/15Z 13/16Z 13/17Z 13/18Z 13/19Z 13/20Z 13/21Z 13/22Z 13/23Z 14/00Z
VIS10 10 10 10 10 10 10 10 10 10 10 10 10
CIG-- -- -- -- -- -- -- -- -- -- -- -- --
CoverCLRCLRCLRCLRCLRCLRCLRCLRFEWFEWFEWFEWCLR
FltCatVFRVFRVFRVFRVFRVFRVFRVFRVFRVFRVFRVFRVFR
WX--------------------------
WDir34034034033033032033003103003003000
WSpd4 5 8 8 9 7 6 6 7 7 4 4 0
WGst-- -- 16 -- -- -- -- -- -- -- -- -- --
Raw hourly METARs
KMIA 131153Z 34004KT 10SM CLR 13/07 A3009 RMK AO2 SLP188 T01280067 10178 20128 53026
KMIA 131253Z 34005KT 10SM CLR 13/06 A3012 RMK AO2 SLP198 T01330061
KMIA 131353Z 34008G16KT 10SM CLR 14/05 A3014 RMK AO2 SLP205 T01390050
KMIA 131453Z 33008KT 10SM CLR 15/04 A3014 RMK AO2 SLP207 T01500044 51019
KMIA 131553Z 33009KT 10SM CLR 16/04 A3013 RMK AO2 SLP203 T01610039
KMIA 131653Z 32007KT 280V350 10SM CLR 17/04 A3011 RMK AO2 SLP194 T01720039
KMIA 131753Z 33006KT 10SM CLR 18/05 A3007 RMK AO2 SLP182 T01830050 10183 20128 58025 $
KMIA 131853Z VRB06KT 10SM CLR 19/05 A3005 RMK AO2 SLP175 T01890050 $
KMIA 131953Z 31007KT 280V350 10SM FEW250 19/04 A3004 RMK AO2 SLP173 T01940044 $
KMIA 132053Z 30007KT 10SM FEW250 19/02 A3005 RMK AO2 SLP176 T01940022 55006 $
KMIA 132153Z 30004KT 10SM FEW250 18/02 A3005 RMK AO2 SLP176 T01830022 $
KMIA 132253Z 30004KT 10SM FEW250 17/01 A3006 RMK AO2 SLP180 T01720011 $
KMIA 132353Z 00000KT 10SM CLR 17/02 A3009 RMK AO2 SLP188 T01670017 10194 20167 53012 $